sensor_id;sensor_type;location;lat;lon;timestamp;temperature;humidity
20288;DHT22;10303;51.960;8.372;2023-03-21T00:01:58;13.00;99.90
20288;DHT22;10303;51.960;8.372;2023-03-21T00:04:25;13.00;99.90
20288;DHT22;10303;51.960;8.372;2023-03-21T00:06:52;13.00;99.90
20288;DHT22;10303;51.960;8.372;2023-03-21T00:09:18;13.00;99.90
20288;DHT22;10303;51.960;8.372;2023-03-21T00:11:45;13.00;99.90
20288;DHT22;10303;51.960;8.372;2023-03-21T00:14:13;13.00;99.90
20288;DHT22;10303;51.960;8.372;2023-03-21T00:16:43;13.00;99.90
20288;DHT22;10303;51.960;8.372;2023-03-21T00:19:16;13.20;99.90
20288;DHT22;10303;51.960;8.372;2023-03-21T00:21:42;13.10;99.90
20288;DHT22;10303;51.960;8.372;2023-03-21T00:24:08;13.10;99.90
20288;DHT22;10303;51.960;8.372;2023-03-21T00:26:34;13.40;99.90
20288;DHT22;10303;51.960;8.372;2023-03-21T00:29:00;13.20;99.90
20288;DHT22;10303;51.960;8.372;2023-03-21T00:31:26;13.20;99.90
20288;DHT22;10303;51.960;8.372;2023-03-21T00:33:52;13.30;99.90
20288;DHT22;10303;51.960;8.372;2023-03-21T00:36:18;13.20;99.90
20288;DHT22;10303;51.960;8.372;2023-03-21T00:38:43;13.20;99.90
20288;DHT22;10303;51.960;8.372;2023-03-21T00:41:11;13.30;99.90
20288;DHT22;10303;51.960;8.372;2023-03-21T00:43:39;13.20;99.90
20288;DHT22;10303;51.960;8.372;2023-03-21T00:46:06;13.20;99.90
20288;DHT22;10303;51.960;8.372;2023-03-21T00:48:32;13.20;99.90
20288;DHT22;10303;51.960;8.372;2023-03-21T00:50:58;13.20;99.90
20288;DHT22;10303;51.960;8.372;2023-03-21T00:53:26;13.20;99.90
20288;DHT22;10303;51.960;8.372;2023-03-21T00:55:52;13.10;99.90
20288;DHT22;10303;51.960;8.372;2023-03-21T00:58:18;13.20;99.90
20288;DHT22;10303;51.960;8.372;2023-03-21T01:00:45;13.00;99.90
20288;DHT22;10303;51.960;8.372;2023-03-21T01:03:15;13.00;99.90
20288;DHT22;10303;51.960;8.372;2023-03-21T01:05:44;13.10;99.90
20288;DHT22;10303;51.960;8.372;2023-03-21T01:08:30;13.00;99.90
20288;DHT22;10303;51.960;8.372;2023-03-21T01:11:04;13.10;99.90
20288;DHT22;10303;51.960;8.372;2023-03-21T01:13:32;13.10;99.90
20288;DHT22;10303;51.960;8.372;2023-03-21T01:15:59;13.10;99.90
20288;DHT22;10303;51.960;8.372;2023-03-21T01:18:28;13.10;99.90
20288;DHT22;10303;51.960;8.372;2023-03-21T01:20:56;13.20;99.90
20288;DHT22;10303;51.960;8.372;2023-03-21T01:23:24;13.20;99.90
20288;DHT22;10303;51.960;8.372;2023-03-21T01:25:53;13.20;99.90
20288;DHT22;10303;51.960;8.372;2023-03-21T01:28:20;13.20;99.90
20288;DHT22;10303;51.960;8.372;2023-03-21T01:30:48;13.20;99.90
20288;DHT22;10303;51.960;8.372;2023-03-21T01:33:17;13.20;99.90
20288;DHT22;10303;51.960;8.372;2023-03-21T01:35:43;13.30;99.90
20288;DHT22;10303;51.960;8.372;2023-03-21T01:38:11;13.20;99.90
20288;DHT22;10303;51.960;8.372;2023-03-21T01:40:42;13.20;99.90
20288;DHT22;10303;51.960;8.372;2023-03-21T01:43:25;13.20;99.90
20288;DHT22;10303;51.960;8.372;2023-03-21T01:52:10;13.30;99.90
20288;DHT22;10303;51.960;8.372;2023-03-21T01:54:42;13.30;99.90
20288;DHT22;10303;51.960;8.372;2023-03-21T01:57:12;13.30;99.90
20288;DHT22;10303;51.960;8.372;2023-03-21T01:59:49;13.30;99.90
20288;DHT22;10303;51.960;8.372;2023-03-21T02:02:26;13.30;99.90
20288;DHT22;10303;51.960;8.372;2023-03-21T02:05:06;13.40;99.90
20288;DHT22;10303;51.960;8.372;2023-03-21T02:07:34;13.30;99.90
20288;DHT22;10303;51.960;8.372;2023-03-21T02:10:06;13.30;99.90
20288;DHT22;10303;51.960;8.372;2023-03-21T02:12:34;13.30;99.90
20288;DHT22;10303;51.960;8.372;2023-03-21T02:15:02;13.30;99.90
20288;DHT22;10303;51.960;8.372;2023-03-21T02:50:30;13.40;99.90
20288;DHT22;10303;51.960;8.372;2023-03-21T02:53:03;13.40;99.90
20288;DHT22;10303;51.960;8.372;2023-03-21T02:55:35;13.40;99.90
20288;DHT22;10303;51.960;8.372;2023-03-21T02:58:07;13.30;99.90
20288;DHT22;10303;51.960;8.372;2023-03-21T03:00:35;13.40;99.90
20288;DHT22;10303;51.960;8.372;2023-03-21T03:03:03;13.20;99.90
20288;DHT22;10303;51.960;8.372;2023-03-21T03:05:33;13.20;99.90
20288;DHT22;10303;51.960;8.372;2023-03-21T03:11:06;13.30;99.90
20288;DHT22;10303;51.960;8.372;2023-03-21T03:14:20;13.40;99.90
20288;DHT22;10303;51.960;8.372;2023-03-21T03:17:35;13.40;99.90
20288;DHT22;10303;51.960;8.372;2023-03-21T03:25:41;13.50;99.90
20288;DHT22;10303;51.960;8.372;2023-03-21T03:28:16;13.50;99.90
20288;DHT22;10303;51.960;8.372;2023-03-21T03:30:50;13.60;99.90
20288;DHT22;10303;51.960;8.372;2023-03-21T03:33:22;13.50;99.90
20288;DHT22;10303;51.960;8.372;2023-03-21T03:35:53;13.60;99.90
20288;DHT22;10303;51.960;8.372;2023-03-21T03:38:24;13.60;99.90
20288;DHT22;10303;51.960;8.372;2023-03-21T03:40:56;13.60;99.90
20288;DHT22;10303;51.960;8.372;2023-03-21T03:43:44;13.80;99.90
20288;DHT22;10303;51.960;8.372;2023-03-21T03:49:12;13.70;99.90
20288;DHT22;10303;51.960;8.372;2023-03-21T03:51:57;13.70;99.90
20288;DHT22;10303;51.960;8.372;2023-03-21T03:54:47;13.70;99.90
20288;DHT22;10303;51.960;8.372;2023-03-21T03:57:15;13.80;99.90
20288;DHT22;10303;51.960;8.372;2023-03-21T03:59:44;13.70;99.90
20288;DHT22;10303;51.960;8.372;2023-03-21T04:02:24;13.70;99.90
20288;DHT22;10303;51.960;8.372;2023-03-21T04:04:50;13.60;99.90
20288;DHT22;10303;51.960;8.372;2023-03-21T04:07:19;13.60;99.90
20288;DHT22;10303;51.960;8.372;2023-03-21T04:09:47;13.60;99.90
20288;DHT22;10303;51.960;8.372;2023-03-21T04:12:17;13.70;99.90
20288;DHT22;10303;51.960;8.372;2023-03-21T04:14:59;13.60;99.90
20288;DHT22;10303;51.960;8.372;2023-03-21T04:17:26;13.60;99.90
20288;DHT22;10303;51.960;8.372;2023-03-21T04:19:52;13.60;99.90
20288;DHT22;10303;51.960;8.372;2023-03-21T04:22:21;13.60;99.90
20288;DHT22;10303;51.960;8.372;2023-03-21T04:24:48;13.60;99.90
20288;DHT22;10303;51.960;8.372;2023-03-21T04:27:14;13.70;99.90
20288;DHT22;10303;51.960;8.372;2023-03-21T04:29:42;13.60;99.90
20288;DHT22;10303;51.960;8.372;2023-03-21T04:32:22;13.70;99.90
20288;DHT22;10303;51.960;8.372;2023-03-21T04:34:57;13.60;99.90
20288;DHT22;10303;51.960;8.372;2023-03-21T04:37:23;13.60;99.90
20288;DHT22;10303;51.960;8.372;2023-03-21T04:39:50;13.70;99.90
20288;DHT22;10303;51.960;8.372;2023-03-21T04:42:17;13.60;99.90
20288;DHT22;10303;51.960;8.372;2023-03-21T04:44:44;13.60;99.90
20288;DHT22;10303;51.960;8.372;2023-03-21T04:47:11;13.60;99.90
20288;DHT22;10303;51.960;8.372;2023-03-21T04:49:43;13.60;99.90
20288;DHT22;10303;51.960;8.372;2023-03-21T04:52:10;13.70;99.90
20288;DHT22;10303;51.960;8.372;2023-03-21T04:54:36;13.70;99.90
20288;DHT22;10303;51.960;8.372;2023-03-21T04:57:02;13.70;99.90
20288;DHT22;10303;51.960;8.372;2023-03-21T04:59:30;13.60;99.90
20288;DHT22;10303;51.960;8.372;2023-03-21T05:01:56;13.60;99.90
20288;DHT22;10303;51.960;8.372;2023-03-21T05:04:23;13.60;99.90
20288;DHT22;10303;51.960;8.372;2023-03-21T05:06:52;13.70;99.90
20288;DHT22;10303;51.960;8.372;2023-03-21T05:09:19;13.60;99.90
20288;DHT22;10303;51.960;8.372;2023-03-21T05:11:47;13.70;99.90
20288;DHT22;10303;51.960;8.372;2023-03-21T05:14:23;13.70;99.90
20288;DHT22;10303;51.960;8.372;2023-03-21T05:16:51;13.60;99.90
20288;DHT22;10303;51.960;8.372;2023-03-21T05:19:27;13.70;99.90
20288;DHT22;10303;51.960;8.372;2023-03-21T05:22:02;13.70;99.90
20288;DHT22;10303;51.960;8.372;2023-03-21T05:24:33;13.80;99.90
20288;DHT22;10303;51.960;8.372;2023-03-21T05:27:05;13.70;99.90
20288;DHT22;10303;51.960;8.372;2023-03-21T05:29:38;13.70;99.90
20288;DHT22;10303;51.960;8.372;2023-03-21T05:32:06;13.70;99.90
20288;DHT22;10303;51.960;8.372;2023-03-21T05:34:32;13.70;99.90
20288;DHT22;10303;51.960;8.372;2023-03-21T05:36:59;13.70;99.90
20288;DHT22;10303;51.960;8.372;2023-03-21T05:39:36;13.70;99.90
20288;DHT22;10303;51.960;8.372;2023-03-21T05:42:08;13.70;99.90
20288;DHT22;10303;51.960;8.372;2023-03-21T05:44:34;13.70;99.90
20288;DHT22;10303;51.960;8.372;2023-03-21T05:47:03;13.70;99.90
20288;DHT22;10303;51.960;8.372;2023-03-21T05:49:38;13.70;99.90
20288;DHT22;10303;51.960;8.372;2023-03-21T05:52:05;13.70;99.90
20288;DHT22;10303;51.960;8.372;2023-03-21T05:54:32;13.80;99.90
20288;DHT22;10303;51.960;8.372;2023-03-21T05:56:58;13.70;99.90
20288;DHT22;10303;51.960;8.372;2023-03-21T05:59:40;13.70;99.90
20288;DHT22;10303;51.960;8.372;2023-03-21T06:02:06;13.80;99.90
20288;DHT22;10303;51.960;8.372;2023-03-21T06:04:32;13.70;99.90
20288;DHT22;10303;51.960;8.372;2023-03-21T06:06:58;13.80;99.90
20288;DHT22;10303;51.960;8.372;2023-03-21T06:09:24;13.90;99.90
20288;DHT22;10303;51.960;8.372;2023-03-21T06:11:56;13.80;99.90
20288;DHT22;10303;51.960;8.372;2023-03-21T06:14:29;13.90;99.90
20288;DHT22;10303;51.960;8.372;2023-03-21T06:17:22;13.80;99.90
20288;DHT22;10303;51.960;8.372;2023-03-21T06:19:54;13.80;99.90
20288;DHT22;10303;51.960;8.372;2023-03-21T06:22:27;13.80;99.90
20288;DHT22;10303;51.960;8.372;2023-03-21T06:24:53;13.90;99.90
20288;DHT22;10303;51.960;8.372;2023-03-21T06:27:19;13.80;99.90
20288;DHT22;10303;51.960;8.372;2023-03-21T06:29:55;13.80;99.90
20288;DHT22;10303;51.960;8.372;2023-03-21T06:32:23;13.80;99.90
20288;DHT22;10303;51.960;8.372;2023-03-21T06:34:54;13.90;99.90
20288;DHT22;10303;51.960;8.372;2023-03-21T06:37:21;13.90;99.90
20288;DHT22;10303;51.960;8.372;2023-03-21T06:39:48;13.90;99.90
20288;DHT22;10303;51.960;8.372;2023-03-21T06:42:14;13.90;99.90
20288;DHT22;10303;51.960;8.372;2023-03-21T06:44:40;13.90;99.90
20288;DHT22;10303;51.960;8.372;2023-03-21T06:47:11;14.10;99.90
20288;DHT22;10303;51.960;8.372;2023-03-21T06:49:39;13.90;99.90
20288;DHT22;10303;51.960;8.372;2023-03-21T06:52:09;13.90;99.90
20288;DHT22;10303;51.960;8.372;2023-03-21T06:54:36;14.00;99.90
20288;DHT22;10303;51.960;8.372;2023-03-21T06:57:09;14.00;99.90
20288;DHT22;10303;51.960;8.372;2023-03-21T06:59:36;14.00;99.90
20288;DHT22;10303;51.960;8.372;2023-03-21T07:02:07;14.00;99.90
20288;DHT22;10303;51.960;8.372;2023-03-21T07:04:42;14.00;99.90
20288;DHT22;10303;51.960;8.372;2023-03-21T07:07:15;14.10;99.90
20288;DHT22;10303;51.960;8.372;2023-03-21T07:09:41;14.10;99.90
20288;DHT22;10303;51.960;8.372;2023-03-21T07:12:08;14.10;99.90
20288;DHT22;10303;51.960;8.372;2023-03-21T07:15:00;14.10;99.90
20288;DHT22;10303;51.960;8.372;2023-03-21T07:17:30;14.10;99.90
20288;DHT22;10303;51.960;8.372;2023-03-21T07:19:56;14.10;99.90
20288;DHT22;10303;51.960;8.372;2023-03-21T07:22:22;14.20;99.90
20288;DHT22;10303;51.960;8.372;2023-03-21T07:24:48;14.20;99.90
20288;DHT22;10303;51.960;8.372;2023-03-21T07:27:15;14.20;99.90
20288;DHT22;10303;51.960;8.372;2023-03-21T07:29:44;14.20;99.90
20288;DHT22;10303;51.960;8.372;2023-03-21T07:32:12;14.20;99.90
20288;DHT22;10303;51.960;8.372;2023-03-21T07:34:38;14.20;99.90
20288;DHT22;10303;51.960;8.372;2023-03-21T07:37:04;14.20;99.90
20288;DHT22;10303;51.960;8.372;2023-03-21T07:39:32;14.40;99.90
20288;DHT22;10303;51.960;8.372;2023-03-21T07:42:00;14.40;99.90
20288;DHT22;10303;51.960;8.372;2023-03-21T07:44:35;14.20;99.90
20288;DHT22;10303;51.960;8.372;2023-03-21T07:47:03;14.30;99.90
20288;DHT22;10303;51.960;8.372;2023-03-21T07:49:31;14.20;99.90
20288;DHT22;10303;51.960;8.372;2023-03-21T07:51:57;14.20;99.90
20288;DHT22;10303;51.960;8.372;2023-03-21T07:54:24;14.20;99.90
20288;DHT22;10303;51.960;8.372;2023-03-21T07:56:50;14.20;99.90
20288;DHT22;10303;51.960;8.372;2023-03-21T07:59:16;14.20;99.90
20288;DHT22;10303;51.960;8.372;2023-03-21T08:01:42;14.30;99.90
20288;DHT22;10303;51.960;8.372;2023-03-21T08:04:08;14.30;99.90
20288;DHT22;10303;51.960;8.372;2023-03-21T08:06:33;14.30;99.90
20288;DHT22;10303;51.960;8.372;2023-03-21T08:09:00;14.20;99.90
20288;DHT22;10303;51.960;8.372;2023-03-21T08:11:27;14.20;99.90
20288;DHT22;10303;51.960;8.372;2023-03-21T08:13:56;14.20;99.90
20288;DHT22;10303;51.960;8.372;2023-03-21T08:16:23;14.20;99.90
20288;DHT22;10303;51.960;8.372;2023-03-21T08:18:49;14.20;99.90
20288;DHT22;10303;51.960;8.372;2023-03-21T08:21:15;14.20;99.90
20288;DHT22;10303;51.960;8.372;2023-03-21T08:23:41;14.30;99.90
20288;DHT22;10303;51.960;8.372;2023-03-21T08:26:07;14.30;99.90
20288;DHT22;10303;51.960;8.372;2023-03-21T08:28:35;14.50;99.90
20288;DHT22;10303;51.960;8.372;2023-03-21T08:31:08;14.30;99.90
20288;DHT22;10303;51.960;8.372;2023-03-21T08:33:35;14.30;99.90
20288;DHT22;10303;51.960;8.372;2023-03-21T08:36:02;14.30;99.90
20288;DHT22;10303;51.960;8.372;2023-03-21T08:38:29;14.30;99.90
20288;DHT22;10303;51.960;8.372;2023-03-21T08:40:58;14.30;99.90
20288;DHT22;10303;51.960;8.372;2023-03-21T08:43:26;14.30;99.90
20288;DHT22;10303;51.960;8.372;2023-03-21T08:45:52;14.20;99.90
20288;DHT22;10303;51.960;8.372;2023-03-21T08:48:18;14.20;99.90
20288;DHT22;10303;51.960;8.372;2023-03-21T08:50:44;14.20;99.90
20288;DHT22;10303;51.960;8.372;2023-03-21T08:53:11;14.20;99.90
20288;DHT22;10303;51.960;8.372;2023-03-21T08:55:37;14.20;99.90
20288;DHT22;10303;51.960;8.372;2023-03-21T08:58:03;14.20;99.90
20288;DHT22;10303;51.960;8.372;2023-03-21T09:00:30;14.20;99.90
20288;DHT22;10303;51.960;8.372;2023-03-21T09:02:56;14.20;99.90
20288;DHT22;10303;51.960;8.372;2023-03-21T09:05:23;14.10;99.90
20288;DHT22;10303;51.960;8.372;2023-03-21T09:07:51;14.20;99.90
20288;DHT22;10303;51.960;8.372;2023-03-21T09:10:19;14.10;99.90
20288;DHT22;10303;51.960;8.372;2023-03-21T09:12:51;14.10;99.90
20288;DHT22;10303;51.960;8.372;2023-03-21T09:15:18;14.10;99.90
20288;DHT22;10303;51.960;8.372;2023-03-21T09:17:46;14.10;99.90
20288;DHT22;10303;51.960;8.372;2023-03-21T09:20:17;14.00;99.90
20288;DHT22;10303;51.960;8.372;2023-03-21T09:22:47;14.00;99.90
20288;DHT22;10303;51.960;8.372;2023-03-21T09:25:17;14.00;99.90
20288;DHT22;10303;51.960;8.372;2023-03-21T09:27:44;14.00;99.90
20288;DHT22;10303;51.960;8.372;2023-03-21T09:30:17;14.00;99.90
20288;DHT22;10303;51.960;8.372;2023-03-21T09:32:45;14.00;99.90
20288;DHT22;10303;51.960;8.372;2023-03-21T09:35:14;14.00;99.90
20288;DHT22;10303;51.960;8.372;2023-03-21T09:37:42;14.20;99.90
20288;DHT22;10303;51.960;8.372;2023-03-21T09:41:04;14.10;99.90
20288;DHT22;10303;51.960;8.372;2023-03-21T09:43:39;14.10;99.90
20288;DHT22;10303;51.960;8.372;2023-03-21T09:46:49;14.10;99.90
20288;DHT22;10303;51.960;8.372;2023-03-21T09:49:27;14.10;99.90
20288;DHT22;10303;51.960;8.372;2023-03-21T09:52:02;14.10;99.90
20288;DHT22;10303;51.960;8.372;2023-03-21T09:54:41;14.10;99.90
20288;DHT22;10303;51.960;8.372;2023-03-21T09:59:45;14.10;99.90
20288;DHT22;10303;51.960;8.372;2023-03-21T10:05:00;14.00;99.90
20288;DHT22;10303;51.960;8.372;2023-03-21T10:07:37;14.00;99.90
20288;DHT22;10303;51.960;8.372;2023-03-21T10:10:11;14.10;99.90
20288;DHT22;10303;51.960;8.372;2023-03-21T10:12:43;14.00;99.90
20288;DHT22;10303;51.960;8.372;2023-03-21T10:15:16;14.00;99.90
20288;DHT22;10303;51.960;8.372;2023-03-21T10:20:23;14.10;99.90
20288;DHT22;10303;51.960;8.372;2023-03-21T10:22:53;14.10;99.90
20288;DHT22;10303;51.960;8.372;2023-03-21T10:26:02;14.20;99.90
20288;DHT22;10303;51.960;8.372;2023-03-21T10:28:35;14.10;99.90
20288;DHT22;10303;51.960;8.372;2023-03-21T10:31:07;14.10;99.90
20288;DHT22;10303;51.960;8.372;2023-03-21T10:33:38;14.20;99.90
20288;DHT22;10303;51.960;8.372;2023-03-21T10:36:17;14.20;99.90
20288;DHT22;10303;51.960;8.372;2023-03-21T10:38:51;14.40;99.90
20288;DHT22;10303;51.960;8.372;2023-03-21T10:41:21;14.20;99.90
20288;DHT22;10303;51.960;8.372;2023-03-21T10:44:04;14.30;99.90
20288;DHT22;10303;51.960;8.372;2023-03-21T10:46:53;14.30;99.90
20288;DHT22;10303;51.960;8.372;2023-03-21T10:49:21;14.30;99.90
20288;DHT22;10303;51.960;8.372;2023-03-21T10:51:55;14.40;99.90
20288;DHT22;10303;51.960;8.372;2023-03-21T10:54:27;14.40;99.90
20288;DHT22;10303;51.960;8.372;2023-03-21T10:56:56;14.50;99.90
20288;DHT22;10303;51.960;8.372;2023-03-21T10:59:24;14.50;99.90
20288;DHT22;10303;51.960;8.372;2023-03-21T11:01:54;14.50;99.90
20288;DHT22;10303;51.960;8.372;2023-03-21T11:04:25;14.70;99.90
20288;DHT22;10303;51.960;8.372;2023-03-21T11:06:56;14.60;99.90
20288;DHT22;10303;51.960;8.372;2023-03-21T11:09:49;14.50;99.90
20288;DHT22;10303;51.960;8.372;2023-03-21T11:12:36;14.40;99.90
20288;DHT22;10303;51.960;8.372;2023-03-21T11:17:57;14.50;99.90
20288;DHT22;10303;51.960;8.372;2023-03-21T11:20:25;14.50;99.90
20288;DHT22;10303;51.960;8.372;2023-03-21T11:22:56;14.60;99.90
20288;DHT22;10303;51.960;8.372;2023-03-21T11:25:37;14.50;99.90
20288;DHT22;10303;51.960;8.372;2023-03-21T11:28:13;14.60;99.90
20288;DHT22;10303;51.960;8.372;2023-03-21T11:30:53;14.60;99.90
20288;DHT22;10303;51.960;8.372;2023-03-21T11:33:49;14.60;99.90
20288;DHT22;10303;51.960;8.372;2023-03-21T11:38:43;14.70;99.90
20288;DHT22;10303;51.960;8.372;2023-03-21T11:41:46;14.70;99.90
20288;DHT22;10303;51.960;8.372;2023-03-21T11:44:33;14.70;99.90
20288;DHT22;10303;51.960;8.372;2023-03-21T11:47:09;14.80;99.90
20288;DHT22;10303;51.960;8.372;2023-03-21T11:49:35;14.80;99.90
20288;DHT22;10303;51.960;8.372;2023-03-21T11:52:07;14.80;99.90
20288;DHT22;10303;51.960;8.372;2023-03-21T11:57:35;14.80;99.90
20288;DHT22;10303;51.960;8.372;2023-03-21T12:00:28;14.80;99.90
20288;DHT22;10303;51.960;8.372;2023-03-21T12:06:37;14.80;99.90
20288;DHT22;10303;51.960;8.372;2023-03-21T12:09:12;14.80;99.90
20288;DHT22;10303;51.960;8.372;2023-03-21T12:20:39;14.80;99.90
20288;DHT22;10303;51.960;8.372;2023-03-21T12:26:31;14.80;99.90
20288;DHT22;10303;51.960;8.372;2023-03-21T12:29:22;14.90;99.90
20288;DHT22;10303;51.960;8.372;2023-03-21T12:32:42;14.90;99.90
20288;DHT22;10303;51.960;8.372;2023-03-21T12:38:15;14.90;99.90
20288;DHT22;10303;51.960;8.372;2023-03-21T12:44:13;14.90;99.90
20288;DHT22;10303;51.960;8.372;2023-03-21T12:46:59;15.00;99.90
20288;DHT22;10303;51.960;8.372;2023-03-21T12:49:35;15.00;99.90
20288;DHT22;10303;51.960;8.372;2023-03-21T12:54:45;15.00;99.90
20288;DHT22;10303;51.960;8.372;2023-03-21T13:00:14;15.00;99.90
20288;DHT22;10303;51.960;8.372;2023-03-21T13:02:53;15.00;99.90
20288;DHT22;10303;51.960;8.372;2023-03-21T13:08:17;15.00;99.90
20288;DHT22;10303;51.960;8.372;2023-03-21T13:10:49;15.10;99.90
20288;DHT22;10303;51.960;8.372;2023-03-21T13:13:26;15.20;99.90
20288;DHT22;10303;51.960;8.372;2023-03-21T13:16:09;15.10;99.90
20288;DHT22;10303;51.960;8.372;2023-03-21T13:21:53;15.10;99.90
20288;DHT22;10303;51.960;8.372;2023-03-21T13:30:00;15.20;99.90
20288;DHT22;10303;51.960;8.372;2023-03-21T13:32:42;15.30;99.90
20288;DHT22;10303;51.960;8.372;2023-03-21T13:35:20;15.30;99.90
20288;DHT22;10303;51.960;8.372;2023-03-21T13:38:15;15.40;99.90
20288;DHT22;10303;51.960;8.372;2023-03-21T13:40:50;15.50;99.90
20288;DHT22;10303;51.960;8.372;2023-03-21T13:48:58;15.40;99.90
20288;DHT22;10303;51.960;8.372;2023-03-21T13:51:45;15.60;99.90
20288;DHT22;10303;51.960;8.372;2023-03-21T14:00:22;15.50;99.90
20288;DHT22;10303;51.960;8.372;2023-03-21T14:03:08;15.60;99.90
20288;DHT22;10303;51.960;8.372;2023-03-21T14:05:40;15.60;99.90
20288;DHT22;10303;51.960;8.372;2023-03-21T14:08:09;15.70;99.90
20288;DHT22;10303;51.960;8.372;2023-03-21T14:10:44;15.60;99.90
20288;DHT22;10303;51.960;8.372;2023-03-21T14:13:19;15.60;99.90
20288;DHT22;10303;51.960;8.372;2023-03-21T14:15:59;15.60;99.90
20288;DHT22;10303;51.960;8.372;2023-03-21T14:19:00;15.70;99.90
20288;DHT22;10303;51.960;8.372;2023-03-21T14:21:29;15.60;99.90
20288;DHT22;10303;51.960;8.372;2023-03-21T14:24:05;15.70;99.90
20288;DHT22;10303;51.960;8.372;2023-03-21T14:26:41;15.70;99.90
20288;DHT22;10303;51.960;8.372;2023-03-21T14:29:22;15.80;99.90
20288;DHT22;10303;51.960;8.372;2023-03-21T14:31:51;15.80;99.90
20288;DHT22;10303;51.960;8.372;2023-03-21T14:34:19;15.80;99.90
20288;DHT22;10303;51.960;8.372;2023-03-21T14:36:46;16.00;99.90
20288;DHT22;10303;51.960;8.372;2023-03-21T14:39:27;15.80;99.90
20288;DHT22;10303;51.960;8.372;2023-03-21T14:42:01;15.80;99.90
20288;DHT22;10303;51.960;8.372;2023-03-21T14:44:34;15.70;99.90
20288;DHT22;10303;51.960;8.372;2023-03-21T14:47:05;15.60;99.90
20288;DHT22;10303;51.960;8.372;2023-03-21T14:49:37;15.60;99.90
20288;DHT22;10303;51.960;8.372;2023-03-21T14:52:06;15.60;99.90
20288;DHT22;10303;51.960;8.372;2023-03-21T14:54:39;15.60;99.90
20288;DHT22;10303;51.960;8.372;2023-03-21T14:57:15;15.70;99.90
20288;DHT22;10303;51.960;8.372;2023-03-21T14:59:47;15.60;99.90
20288;DHT22;10303;51.960;8.372;2023-03-21T15:02:22;15.60;99.90
20288;DHT22;10303;51.960;8.372;2023-03-21T15:04:55;15.60;99.90
20288;DHT22;10303;51.960;8.372;2023-03-21T15:07:31;15.60;99.90
20288;DHT22;10303;51.960;8.372;2023-03-21T15:10:07;15.60;99.90
20288;DHT22;10303;51.960;8.372;2023-03-21T15:12:52;15.70;99.90
20288;DHT22;10303;51.960;8.372;2023-03-21T15:15:21;15.70;99.90
20288;DHT22;10303;51.960;8.372;2023-03-21T15:17:49;15.60;99.90
20288;DHT22;10303;51.960;8.372;2023-03-21T15:20:23;15.60;99.90
20288;DHT22;10303;51.960;8.372;2023-03-21T15:22:55;15.60;99.90
20288;DHT22;10303;51.960;8.372;2023-03-21T15:25:31;15.60;99.90
20288;DHT22;10303;51.960;8.372;2023-03-21T15:27:59;15.60;99.90
20288;DHT22;10303;51.960;8.372;2023-03-21T15:30:27;15.70;99.90
20288;DHT22;10303;51.960;8.372;2023-03-21T15:32:56;15.60;99.90
20288;DHT22;10303;51.960;8.372;2023-03-21T15:35:41;15.60;99.90
20288;DHT22;10303;51.960;8.372;2023-03-21T15:38:41;15.60;99.90
20288;DHT22;10303;51.960;8.372;2023-03-21T15:46:38;15.40;99.90
20288;DHT22;10303;51.960;8.372;2023-03-21T15:54:47;15.30;99.90
20288;DHT22;10303;51.960;8.372;2023-03-21T15:57:26;15.40;99.90
20288;DHT22;10303;51.960;8.372;2023-03-21T16:00:04;15.30;99.90
20288;DHT22;10303;51.960;8.372;2023-03-21T16:02:44;15.30;99.90
20288;DHT22;10303;51.960;8.372;2023-03-21T16:05:30;15.30;99.90
20288;DHT22;10303;51.960;8.372;2023-03-21T16:08:30;15.30;99.90
20288;DHT22;10303;51.960;8.372;2023-03-21T16:11:22;15.30;99.90
20288;DHT22;10303;51.960;8.372;2023-03-21T16:13:53;15.20;99.90
20288;DHT22;10303;51.960;8.372;2023-03-21T16:16:25;15.20;99.90
20288;DHT22;10303;51.960;8.372;2023-03-21T16:18:55;15.30;99.90
20288;DHT22;10303;51.960;8.372;2023-03-21T16:21:25;15.20;99.90
20288;DHT22;10303;51.960;8.372;2023-03-21T16:23:53;15.20;99.90
20288;DHT22;10303;51.960;8.372;2023-03-21T16:26:26;15.20;99.90
20288;DHT22;10303;51.960;8.372;2023-03-21T16:28:54;15.20;99.90
20288;DHT22;10303;51.960;8.372;2023-03-21T16:31:24;15.20;99.90
20288;DHT22;10303;51.960;8.372;2023-03-21T16:33:53;15.20;99.90
20288;DHT22;10303;51.960;8.372;2023-03-21T16:36:23;15.20;99.90
20288;DHT22;10303;51.960;8.372;2023-03-21T16:38:55;15.20;99.90
20288;DHT22;10303;51.960;8.372;2023-03-21T16:41:23;15.20;99.90
20288;DHT22;10303;51.960;8.372;2023-03-21T16:43:51;15.30;99.90
20288;DHT22;10303;51.960;8.372;2023-03-21T16:46:20;15.30;99.90
20288;DHT22;10303;51.960;8.372;2023-03-21T16:48:53;15.40;99.90
20288;DHT22;10303;51.960;8.372;2023-03-21T16:51:24;15.40;99.90
20288;DHT22;10303;51.960;8.372;2023-03-21T16:53:54;15.40;99.90
20288;DHT22;10303;51.960;8.372;2023-03-21T16:56:26;15.40;99.90
20288;DHT22;10303;51.960;8.372;2023-03-21T16:58:56;15.50;99.90
20288;DHT22;10303;51.960;8.372;2023-03-21T17:01:25;15.50;99.90
20288;DHT22;10303;51.960;8.372;2023-03-21T17:03:52;15.50;99.90
20288;DHT22;10303;51.960;8.372;2023-03-21T17:06:21;15.50;99.90
20288;DHT22;10303;51.960;8.372;2023-03-21T17:08:51;15.50;99.90
20288;DHT22;10303;51.960;8.372;2023-03-21T17:11:20;15.50;99.90
20288;DHT22;10303;51.960;8.372;2023-03-21T17:13:49;15.50;99.90
20288;DHT22;10303;51.960;8.372;2023-03-21T17:16:19;15.50;99.90
20288;DHT22;10303;51.960;8.372;2023-03-21T17:18:49;15.50;99.90
20288;DHT22;10303;51.960;8.372;2023-03-21T17:21:26;15.60;99.90
20288;DHT22;10303;51.960;8.372;2023-03-21T17:23:54;15.50;99.90
20288;DHT22;10303;51.960;8.372;2023-03-21T17:26:23;15.50;99.90
20288;DHT22;10303;51.960;8.372;2023-03-21T17:28:54;15.50;99.90
20288;DHT22;10303;51.960;8.372;2023-03-21T17:31:23;15.50;99.90
20288;DHT22;10303;51.960;8.372;2023-03-21T17:33:51;15.40;99.90
20288;DHT22;10303;51.960;8.372;2023-03-21T17:36:20;15.40;99.90
20288;DHT22;10303;51.960;8.372;2023-03-21T17:38:56;15.40;99.90
20288;DHT22;10303;51.960;8.372;2023-03-21T17:41:22;15.40;99.90
20288;DHT22;10303;51.960;8.372;2023-03-21T17:43:49;15.50;99.90
20288;DHT22;10303;51.960;8.372;2023-03-21T17:46:19;15.30;99.90
20288;DHT22;10303;51.960;8.372;2023-03-21T17:48:46;15.30;99.90
20288;DHT22;10303;51.960;8.372;2023-03-21T17:51:13;15.20;99.90
20288;DHT22;10303;51.960;8.372;2023-03-21T17:53:41;15.20;99.90
20288;DHT22;10303;51.960;8.372;2023-03-21T17:56:19;15.20;99.90
20288;DHT22;10303;51.960;8.372;2023-03-21T17:58:46;15.20;99.90
20288;DHT22;10303;51.960;8.372;2023-03-21T18:01:12;15.20;99.90
20288;DHT22;10303;51.960;8.372;2023-03-21T18:03:39;15.10;99.90
20288;DHT22;10303;51.960;8.372;2023-03-21T18:06:05;15.10;99.90
20288;DHT22;10303;51.960;8.372;2023-03-21T18:08:36;15.10;99.90
20288;DHT22;10303;51.960;8.372;2023-03-21T18:11:02;15.10;99.90